createdAt,value
2023-03-15T00:14:50.873Z,0.89
2023-03-15T00:30:33.947Z,0.72
2023-03-15T00:46:16.324Z,0.5
2023-03-15T01:01:58.476Z,0.35
2023-03-15T01:17:40.990Z,0.27
2023-03-15T01:33:23.342Z,0.2
2023-03-15T01:49:05.994Z,0.08
2023-03-15T02:04:48.574Z,0.06
2023-03-15T02:20:31.070Z,167772.12
2023-03-15T02:36:13.570Z,167771.98
2023-03-15T02:51:55.919Z,167771.9
2023-03-15T03:07:38.782Z,167771.88
2023-03-15T03:23:21.744Z,167771.87
2023-03-15T03:39:04.685Z,167771.89
2023-03-15T03:39:52.111Z,167772.08
2023-03-15T03:55:35.137Z,167772.06
2023-03-15T04:11:17.787Z,167772.08
2023-03-15T04:27:00.927Z,167771.91
2023-03-15T04:42:43.150Z,167771.66
2023-03-15T04:58:26.008Z,167771.37
2023-03-15T05:14:08.462Z,167771.23
2023-03-15T05:29:51.088Z,167771.14
2023-03-15T05:45:34.092Z,167771.25
2023-03-15T06:01:16.218Z,167771.64
2023-03-15T06:16:59.072Z,167772.05
2023-03-15T06:32:42.262Z,0.65
2023-03-15T06:48:24.487Z,1.04
2023-03-15T07:19:49.737Z,1.48
2023-03-15T07:51:14.422Z,2.98
2023-03-15T08:06:56.760Z,3.32
2023-03-15T08:22:39.419Z,3.67
2023-03-15T08:38:22.471Z,3.75
2023-03-15T08:54:05.557Z,3.93
2023-03-15T09:09:48.342Z,3.67
2023-03-15T09:25:31.097Z,3.72
2023-03-15T09:41:13.532Z,4.3
2023-03-15T09:56:55.979Z,4.5
2023-03-15T10:12:38.837Z,4.92
2023-03-15T10:28:21.124Z,5.1
2023-03-15T10:44:03.877Z,5.44
2023-03-15T10:59:46.486Z,5.96
2023-03-15T11:15:29.267Z,6.07
2023-03-15T11:31:11.937Z,8.47
2023-03-15T11:46:54.347Z,7.87
2023-03-15T12:02:36.562Z,7.38
2023-03-15T12:34:02.023Z,8.04
2023-03-15T12:49:44.261Z,9.37
2023-03-15T13:05:27.011Z,8.47
2023-03-15T13:21:09.307Z,8.89
2023-03-15T13:52:34.898Z,8.53
2023-03-15T14:08:17.918Z,8.39
2023-03-15T14:24:00.003Z,6.73
2023-03-15T14:39:42.428Z,11.61
2023-03-15T14:55:24.849Z,12.07
2023-03-15T15:11:07.871Z,10.18
2023-03-15T15:26:50.917Z,8.54
2023-03-15T15:42:33.785Z,7.29
2023-03-15T15:58:15.878Z,6.3
2023-03-15T16:13:58.061Z,5.82
2023-03-15T16:29:47.343Z,5.5
2023-03-15T16:45:23.204Z,4.12
2023-03-15T17:01:06.227Z,3.97
2023-03-15T17:16:49.446Z,3.47
2023-03-15T17:32:31.916Z,3.17
2023-03-15T17:48:14.836Z,2.87
2023-03-15T18:03:57.831Z,2.58
2023-03-15T18:19:40.464Z,2.4
2023-03-15T18:35:23.639Z,2.33
2023-03-15T18:51:06.505Z,2.2
2023-03-15T19:06:49.404Z,2.2
2023-03-15T19:22:32.036Z,2.09
2023-03-15T19:38:15.026Z,1.93
2023-03-15T19:53:57.976Z,1.73
2023-03-15T20:09:41.053Z,1.53
2023-03-15T20:25:23.724Z,1.39
2023-03-15T20:41:06.864Z,1.21
2023-03-15T20:56:49.246Z,1.03
2023-03-15T21:12:32.345Z,0.95
2023-03-15T21:28:14.746Z,0.87
2023-03-15T21:43:57.441Z,0.73
2023-03-15T21:59:39.873Z,0.52
2023-03-15T22:15:22.296Z,0.39
2023-03-15T22:31:04.896Z,0.34
2023-03-15T22:46:47.650Z,0.22
2023-03-15T23:02:30.218Z,0.04
2023-03-15T23:18:12.547Z,167772.06
2023-03-15T23:33:55.398Z,167771.84
2023-03-15T23:49:38.359Z,167771.75
